Harris, North Carolina
Current Conditions -  °F | °C
As of 8:55 AM on Thursday 30 Oct 2014 (Local Time) from KFQD Reporting Station
Clear Clear  
Wind Chill: 38°   Ceiling: Unl
Heat Index: 42°   Visibility: 10mi
Dew Point: 39°   Wind: 6mph
Humidity: 90%   Direction: 290°WNW
Pressure: 30.09"   Gusts: NA
Location:  35.24°N, 81.87°W
Report Text: KFQD 301255Z AUTO 29005KT 10SM CLR 06/04 A3009 RMK AO2 T00550039
Loading
Personal Weather Stations






























Interactive Weather Map
Tropical Storm Tracking
New forecast layout! Learn more

10-Day Weather Forecast

Advertisements
Track Severe Weather on mobile